Terminal Aerodrome Forecast
Issued by NWS

Home | Current Version | Previous Version | Text Only | Print | Product List | Glossary On
Versions: 1 2 3 4 5 6 7 8 9 10 11 12 13 14 15 16
000
FTUS46 KSGX 202300
TAFONT
TAF
KONT 202328Z 2100/2206 24011KT P6SM SKC
     FM210400 VRB04KT P6SM SKC
     FM211900 25012KT P6SM SKC
     FM220400 25005KT P6SM SKC=

USA.gov is the U.S. government's official web portal to all federal, state and local government web resources and services.